Time;durP1;ratioP1;P1;durP2;ratioP2;P2;SDS_P1;SDS_P2;PMS_P1;PMS_P2;Temp;Humidity;BMP_temperature;BMP_pressure;BME280_temperature;BME280_humidity;BME280_pressure;Samples;Min_cycle;Max_cycle;Signal;HPM_P1;HPM_P2
2022/01/04 00:01:22;;;;;;;8.02;6.15;;;7.80;51.80;;;;;;5031132;28;20020;-86
2022/01/04 00:03:49;;;;;;;8.23;5.75;;;7.90;51.80;;;;;;5046888;28;20442;-87
2022/01/04 00:06:15;;;;;;;7.20;5.72;;;7.90;51.90;;;;;;5038802;28;20042;-84
2022/01/04 00:08:41;;;;;;;7.97;6.28;;;7.80;51.80;;;;;;5062744;28;20616;-87
2022/01/04 00:11:19;;;;;;;10.30;6.05;;;7.90;51.80;;;;;;5062503;28;20033;-87
2022/01/04 00:13:46;;;;;;;9.27;6.22;;;7.80;51.90;;;;;;5044210;28;20028;-87
2022/01/04 00:16:12;;;;;;;8.85;6.32;;;7.80;51.80;;;;;;5063047;28;20477;-86
2022/01/04 00:18:39;;;;;;;9.40;6.43;;;7.80;51.90;;;;;;5045668;28;20928;-86
2022/01/04 00:21:06;;;;;;;8.85;6.40;;;7.80;52.00;;;;;;5063770;28;20037;-85
2022/01/04 00:23:32;;;;;;;10.38;6.68;;;7.80;52.10;;;;;;5062780;28;20040;-85
2022/01/04 00:25:58;;;;;;;10.32;6.78;;;7.80;52.10;;;;;;5063844;28;20032;-85
2022/01/04 00:28:25;;;;;;;12.65;7.13;;;7.80;52.10;;;;;;5047831;28;20048;-85
2022/01/04 00:30:51;;;;;;;10.05;6.78;;;7.80;52.10;;;;;;5065392;28;20032;-84
2022/01/04 00:33:17;;;;;;;10.88;6.80;;;7.80;52.10;;;;;;5032273;28;20867;-83
2022/01/04 00:35:44;;;;;;;11.15;7.18;;;7.80;52.10;;;;;;5066990;28;20029;-84
2022/01/04 00:38:10;;;;;;;10.60;6.63;;;7.80;52.00;;;;;;5070308;28;20066;-83
2022/01/04 00:40:36;;;;;;;10.63;6.93;;;7.80;52.00;;;;;;5050944;28;20032;-83
2022/01/04 00:43:04;;;;;;;11.85;7.97;;;7.80;52.10;;;;;;5066628;28;20457;-84
2022/01/04 00:45:32;;;;;;;10.45;7.10;;;7.80;52.10;;;;;;5031926;28;20037;-85
2022/01/04 00:50:25;;;;;;;9.88;6.68;;;7.70;52.10;;;;;;5050646;28;20032;-86
2022/01/04 00:52:51;;;;;;;12.52;7.35;;;7.80;52.20;;;;;;5046577;28;20455;-84
2022/01/04 00:55:18;;;;;;;10.23;6.90;;;7.70;52.20;;;;;;5065857;28;20509;-84
2022/01/04 00:57:44;;;;;;;10.32;6.60;;;7.70;52.20;;;;;;5064676;28;20487;-84
2022/01/04 01:00:12;;;;;;;8.57;6.28;;;7.80;52.20;;;;;;5033730;28;20123;-84
2022/01/04 01:02:38;;;;;;;9.63;6.90;;;7.70;52.10;;;;;;5064976;28;20037;-86
2022/01/04 01:05:05;;;;;;;9.25;6.30;;;7.70;52.10;;;;;;5067245;28;20032;-84
2022/01/04 01:07:31;;;;;;;9.77;6.57;;;7.70;52.10;;;;;;5053979;28;20036;-85
2022/01/04 01:12:31;;;;;;;10.85;6.43;;;7.70;52.20;;;;;;5065367;28;20040;-83
2022/01/04 01:14:57;;;;;;;9.82;6.78;;;7.70;52.30;;;;;;5050418;28;20040;-82
2022/01/04 01:17:23;;;;;;;11.00;7.25;;;7.70;52.20;;;;;;5065522;28;20059;-83
2022/01/04 01:19:50;;;;;;;9.70;7.18;;;7.70;52.10;;;;;;5066556;28;21154;-82
2022/01/04 01:22:16;;;;;;;11.32;7.07;;;7.70;52.20;;;;;;5065268;28;20119;-85
2022/01/04 01:24:42;;;;;;;9.85;6.63;;;7.70;52.10;;;;;;5064599;28;20506;-82
2022/01/04 01:27:08;;;;;;;11.55;7.55;;;7.70;52.20;;;;;;5065241;28;20044;-82
2022/01/04 01:29:33;;;;;;;12.18;7.00;;;7.70;52.20;;;;;;5049204;28;20159;-82
2022/01/04 01:31:59;;;;;;;10.30;6.95;;;7.70;52.20;;;;;;5064695;28;20044;-83
2022/01/04 01:34:26;;;;;;;12.90;7.70;;;7.70;52.20;;;;;;5068434;28;20118;-83
2022/01/04 01:36:52;;;;;;;10.32;7.13;;;7.70;52.10;;;;;;5049082;28;20024;-83
2022/01/04 01:39:18;;;;;;;13.07;8.52;;;7.70;52.10;;;;;;5052090;28;20033;-84
2022/01/04 01:41:44;;;;;;;12.93;7.95;;;7.70;52.20;;;;;;5069672;28;20032;-84
2022/01/04 01:44:10;;;;;;;11.82;8.02;;;7.70;52.20;;;;;;5065769;28;20041;-84
2022/01/04 01:46:36;;;;;;;13.25;7.55;;;7.70;52.20;;;;;;5064786;28;20036;-84
2022/01/04 01:49:02;;;;;;;12.75;8.18;;;7.70;52.20;;;;;;5064683;28;20035;-85
2022/01/04 01:51:30;;;;;;;12.93;8.55;;;7.70;52.20;;;;;;5045984;28;20509;-85
2022/01/04 01:53:57;;;;;;;15.00;9.38;;;7.70;52.20;;;;;;5064703;28;20086;-85
2022/01/04 01:56:23;;;;;;;16.40;11.07;;;7.60;52.20;;;;;;5066001;28;20163;-85
2022/01/04 01:58:50;;;;;;;18.27;12.82;;;7.70;52.20;;;;;;5046870;28;20036;-85
2022/01/04 02:01:16;;;;;;;17.48;11.75;;;7.70;52.20;;;;;;5050501;28;20028;-85
2022/01/04 02:03:42;;;;;;;18.52;12.25;;;7.70;52.20;;;;;;5065200;28;20036;-85
2022/01/04 02:06:08;;;;;;;19.70;13.25;;;7.70;52.20;;;;;;5047014;28;20083;-83
2022/01/04 02:08:34;;;;;;;19.13;12.98;;;7.70;52.20;;;;;;5064706;28;20119;-85
2022/01/04 02:11:01;;;;;;;18.45;13.32;;;7.60;52.10;;;;;;5049051;28;20029;-85
2022/01/04 02:13:28;;;;;;;20.75;14.02;;;7.60;52.10;;;;;;5048944;28;20779;-84
2022/01/04 02:15:57;;;;;;;21.45;14.15;;;7.60;52.10;;;;;;5064690;28;20033;-84
2022/01/04 02:18:23;;;;;;;19.45;13.18;;;7.60;52.20;;;;;;5065078;28;20036;-83
2022/01/04 02:20:49;;;;;;;18.88;13.20;;;7.60;52.20;;;;;;5049016;28;20033;-84
2022/01/04 02:23:16;;;;;;;18.38;12.63;;;7.70;52.10;;;;;;5064939;28;20036;-84
2022/01/04 02:25:42;;;;;;;18.70;12.82;;;7.60;52.10;;;;;;5045030;28;20043;-83
2022/01/04 02:28:08;;;;;;;18.40;13.02;;;7.60;52.10;;;;;;5063398;28;20094;-83
2022/01/04 02:30:34;;;;;;;18.75;13.32;;;7.60;52.00;;;;;;5052879;28;20032;-83
2022/01/04 02:33:00;;;;;;;20.10;13.32;;;7.60;52.10;;;;;;5063029;28;20528;-83
2022/01/04 02:35:32;;;;;;;21.95;14.02;;;7.60;52.10;;;;;;5062798;28;21537;-84
2022/01/04 02:38:00;;;;;;;20.02;13.52;;;7.60;52.10;;;;;;5065907;28;20051;-87
2022/01/04 02:40:27;;;;;;;18.63;12.88;;;7.60;52.10;;;;;;5065001;28;20099;-87
2022/01/04 02:42:54;;;;;;;18.33;13.20;;;7.60;52.00;;;;;;5048715;28;20044;-86
2022/01/04 02:45:20;;;;;;;20.25;13.13;;;7.60;51.40;;;;;;5053289;28;20029;-86
2022/01/04 02:47:46;;;;;;;19.50;12.63;;;7.60;50.90;;;;;;5049384;28;20425;-87
2022/01/04 02:50:12;;;;;;;18.88;12.50;;;7.60;50.50;;;;;;5049127;28;20040;-86
2022/01/04 02:52:39;;;;;;;22.52;11.95;;;7.60;50.20;;;;;;5030077;28;20025;-89
2022/01/04 02:55:07;;;;;;;18.85;11.93;;;7.60;49.90;;;;;;5048581;28;20912;-89
2022/01/04 02:57:34;;;;;;;18.35;12.38;;;7.50;49.70;;;;;;5026020;28;20051;-87
2022/01/04 03:00:00;;;;;;;18.27;11.00;;;7.50;49.50;;;;;;5051550;28;20078;-87
2022/01/04 03:02:26;;;;;;;18.00;11.80;;;7.50;49.40;;;;;;5049381;28;21033;-87
2022/01/04 03:04:52;;;;;;;19.10;11.43;;;7.50;49.30;;;;;;5049058;28;20024;-88
2022/01/04 03:07:18;;;;;;;17.77;12.18;;;7.50;49.30;;;;;;5062874;28;20043;-89
2022/01/04 03:09:44;;;;;;;17.23;10.98;;;7.40;49.20;;;;;;5049656;28;20025;-89
2022/01/04 03:12:10;;;;;;;17.60;11.10;;;7.40;49.10;;;;;;5029330;28;20446;-88
2022/01/04 03:14:37;;;;;;;16.25;11.30;;;7.40;49.00;;;;;;5047816;28;20033;-88
2022/01/04 03:17:03;;;;;;;14.35;10.18;;;7.40;48.90;;;;;;5032518;28;20040;-86
2022/01/04 03:19:29;;;;;;;16.15;10.55;;;7.40;48.90;;;;;;5031305;28;20128;-84
2022/01/04 03:21:55;;;;;;;15.60;10.40;;;7.40;48.90;;;;;;5063695;28;20394;-84
2022/01/04 03:24:21;;;;;;;15.95;10.30;;;7.30;48.90;;;;;;5044373;28;20055;-85
2022/01/04 03:26:48;;;;;;;15.23;10.00;;;7.30;48.90;;;;;;5062624;28;20523;-83
2022/01/04 03:29:15;;;;;;;13.23;9.18;;;7.30;49.00;;;;;;5063299;28;20055;-84
2022/01/04 03:31:43;;;;;;;15.05;9.80;;;7.30;49.00;;;;;;5062631;28;20632;-84
2022/01/04 03:34:11;;;;;;;16.13;10.68;;;7.20;49.00;;;;;;5061827;28;20514;-84
2022/01/04 03:36:37;;;;;;;16.73;10.15;;;7.20;49.00;;;;;;5064398;28;20025;-86
2022/01/04 03:39:06;;;;;;;15.63;9.95;;;7.20;48.90;;;;;;5028959;28;20032;-86
2022/01/04 03:41:37;;;;;;;17.88;11.32;;;7.20;48.90;;;;;;5055504;28;20035;-86
2022/01/04 03:44:05;;;;;;;16.50;9.82;;;7.20;49.00;;;;;;5068588;28;20473;-86
2022/01/04 03:46:31;;;;;;;16.63;9.63;;;7.20;49.00;;;;;;5050115;28;20097;-86
2022/01/04 03:48:57;;;;;;;16.58;10.43;;;7.20;49.00;;;;;;5070275;28;20087;-87
2022/01/04 03:51:23;;;;;;;15.82;9.93;;;7.10;48.90;;;;;;5066357;28;20470;-85
2022/01/04 03:53:49;;;;;;;16.45;10.27;;;7.10;48.90;;;;;;5063305;28;20025;-86
2022/01/04 03:56:15;;;;;;;15.55;10.00;;;7.10;48.90;;;;;;5065459;28;20127;-86
2022/01/04 03:58:41;;;;;;;15.57;9.23;;;7.10;48.90;;;;;;5065394;28;20036;-87
2022/01/04 04:01:07;;;;;;;15.75;10.18;;;7.10;48.90;;;;;;5033084;28;20096;-87
2022/01/04 04:03:34;;;;;;;16.60;10.00;;;7.10;48.90;;;;;;5062338;28;20063;-87
2022/01/04 04:06:00;;;;;;;15.18;9.77;;;7.10;49.00;;;;;;5047303;28;20040;-87
2022/01/04 04:08:26;;;;;;;15.20;10.15;;;7.00;48.90;;;;;;5047245;28;20550;-87
2022/01/04 04:10:53;;;;;;;17.40;10.30;;;7.10;48.90;;;;;;5048065;28;20039;-86
2022/01/04 04:13:19;;;;;;;16.15;9.88;;;7.00;48.80;;;;;;5066976;28;20297;-87
2022/01/04 04:15:45;;;;;;;15.90;9.98;;;7.00;48.80;;;;;;5067442;28;20028;-86
2022/01/04 04:18:13;;;;;;;15.55;10.05;;;7.00;48.80;;;;;;5052419;28;20029;-87
2022/01/04 04:20:40;;;;;;;14.18;9.57;;;7.00;48.90;;;;;;5065660;28;20402;-87
2022/01/04 04:23:07;;;;;;;14.88;9.38;;;7.00;48.80;;;;;;5067758;28;20038;-86
2022/01/04 04:25:33;;;;;;;16.58;9.73;;;7.00;48.90;;;;;;5066421;28;20033;-86
2022/01/04 04:28:00;;;;;;;15.02;9.40;;;7.00;49.40;;;;;;5066575;28;20177;-85
2022/01/04 04:30:26;;;;;;;15.27;10.20;;;7.00;48.80;;;;;;5064755;28;20098;-85
2022/01/04 04:32:52;;;;;;;12.73;8.55;;;6.90;48.70;;;;;;5067206;28;20064;-88
2022/01/04 04:35:18;;;;;;;15.23;9.35;;;6.90;48.70;;;;;;5050188;28;20510;-86
2022/01/04 04:37:44;;;;;;;13.05;8.73;;;6.90;48.70;;;;;;5050514;28;20025;-88
2022/01/04 04:40:11;;;;;;;14.85;9.43;;;6.90;48.70;;;;;;5055029;28;20068;-89
2022/01/04 04:42:37;;;;;;;15.30;9.40;;;6.90;48.60;;;;;;5050764;28;20028;-89
2022/01/04 04:45:04;;;;;;;15.45;9.02;;;6.90;48.70;;;;;;5070606;28;20043;-87
2022/01/04 04:47:30;;;;;;;16.38;10.27;;;6.90;48.60;;;;;;5073145;28;20020;-86
2022/01/04 04:49:56;;;;;;;16.83;9.90;;;6.90;48.60;;;;;;5094460;28;20096;-87
2022/01/04 04:52:22;;;;;;;17.02;10.27;;;6.80;48.70;;;;;;5067455;28;20039;-88
2022/01/04 04:54:48;;;;;;;18.02;10.40;;;6.80;48.70;;;;;;5051565;28;20486;-88
2022/01/04 04:57:15;;;;;;;19.88;10.85;;;6.80;48.70;;;;;;5073136;28;20032;-90
2022/01/04 04:59:41;;;;;;;17.98;10.40;;;6.80;48.70;;;;;;5050418;28;20028;-90
2022/01/04 05:02:07;;;;;;;16.20;10.40;;;6.90;48.80;;;;;;5035075;28;20136;-85
2022/01/04 05:04:37;;;;;;;17.88;9.75;;;6.80;48.80;;;;;;5066557;28;20119;-86
2022/01/04 05:07:03;;;;;;;19.15;11.25;;;6.80;48.80;;;;;;5071256;28;20025;-88
2022/01/04 05:09:30;;;;;;;16.58;10.57;;;6.80;48.90;;;;;;5051059;28;20054;-86
2022/01/04 05:11:56;;;;;;;16.65;10.18;;;6.80;48.40;;;;;;5063589;28;20067;-87
2022/01/04 05:14:22;;;;;;;19.20;10.65;;;6.80;48.90;;;;;;5052411;28;20411;-86
2022/01/04 05:16:48;;;;;;;16.58;10.05;;;6.80;48.80;;;;;;5067438;28;20104;-86
2022/01/04 05:19:14;;;;;;;17.88;10.63;;;6.70;48.70;;;;;;5069842;28;20028;-86
2022/01/04 05:21:40;;;;;;;14.85;9.90;;;6.70;48.60;;;;;;5047777;28;20029;-85
2022/01/04 05:24:07;;;;;;;15.27;9.45;;;6.80;48.70;;;;;;5051078;28;20036;-85
2022/01/04 05:26:33;;;;;;;16.45;9.40;;;6.70;48.60;;;;;;5080321;28;20477;-86
2022/01/04 05:29:00;;;;;;;17.23;10.50;;;6.70;48.60;;;;;;5051681;28;20032;-88
2022/01/04 05:31:26;;;;;;;17.42;9.45;;;6.70;48.60;;;;;;5034583;28;20123;-85
2022/01/04 05:33:51;;;;;;;17.77;10.30;;;6.70;48.60;;;;;;5065753;28;20455;-85
2022/01/04 05:36:17;;;;;;;16.88;9.85;;;6.70;48.60;;;;;;5050477;28;20036;-85
2022/01/04 05:38:43;;;;;;;14.88;9.10;;;6.70;48.70;;;;;;5064980;28;20078;-86
2022/01/04 05:41:09;;;;;;;17.58;9.70;;;6.70;48.80;;;;;;5065405;28;20087;-87
2022/01/04 05:43:36;;;;;;;17.88;10.65;;;6.70;48.70;;;;;;5050279;28;20498;-86
2022/01/04 05:46:02;;;;;;;21.67;12.93;;;6.70;48.70;;;;;;5039857;28;20521;-86
2022/01/04 05:48:28;;;;;;;22.48;14.05;;;6.70;48.70;;;;;;5056282;28;20032;-85
2022/01/04 05:50:54;;;;;;;20.48;13.77;;;6.70;48.60;;;;;;5085759;28;20033;-86
2022/01/04 05:53:20;;;;;;;25.90;15.98;;;6.70;48.50;;;;;;5053132;28;20047;-86
2022/01/04 05:55:46;;;;;;;23.55;15.77;;;6.70;48.60;;;;;;5074341;28;20407;-86
2022/01/04 05:58:12;;;;;;;21.80;15.55;;;6.60;48.50;;;;;;5067123;28;20119;-87
2022/01/04 06:00:38;;;;;;;21.65;15.05;;;6.60;48.40;;;;;;5048573;28;20116;-87
2022/01/04 06:03:04;;;;;;;22.48;15.35;;;6.60;48.40;;;;;;5049756;28;20035;-87
2022/01/04 06:05:30;;;;;;;25.27;17.40;;;6.60;48.30;;;;;;5049226;28;20028;-86
2022/01/04 06:07:56;;;;;;;26.17;17.25;;;6.60;48.30;;;;;;5046925;28;20029;-84
2022/01/04 06:10:23;;;;;;;24.70;17.00;;;6.60;48.30;;;;;;5065181;28;20040;-85
2022/01/04 06:15:16;;;;;;;21.58;15.20;;;6.60;48.40;;;;;;5065161;28;20029;-84
2022/01/04 06:17:46;;;;;;;17.60;12.25;;;6.60;48.40;;;;;;5049905;28;20110;-85
2022/01/04 06:20:17;;;;;;;19.55;11.90;;;6.60;48.40;;;;;;5063939;28;20562;-85
2022/01/04 06:22:43;;;;;;;16.20;11.05;;;6.60;48.30;;;;;;5047021;28;20426;-87
2022/01/04 06:25:12;;;;;;;14.48;9.55;;;6.60;48.40;;;;;;5049014;28;20028;-86
2022/01/04 06:27:41;;;;;;;13.10;8.45;;;6.50;48.50;;;;;;5049310;28;20056;-87
2022/01/04 06:30:08;;;;;;;10.73;7.78;;;6.50;48.40;;;;;;5045670;28;20080;-86
2022/01/04 06:32:36;;;;;;;11.85;7.70;;;6.50;48.40;;;;;;5047302;28;20060;-86
2022/01/04 06:35:03;;;;;;;9.95;7.75;;;6.50;48.40;;;;;;5063092;28;20033;-87
2022/01/04 06:37:32;;;;;;;12.27;7.70;;;6.50;48.40;;;;;;5049240;28;20017;-87
2022/01/04 06:39:58;;;;;;;9.88;7.15;;;6.50;48.40;;;;;;5047913;28;20025;-88
2022/01/04 06:42:24;;;;;;;10.07;6.80;;;6.50;48.50;;;;;;5063893;28;20437;-88
2022/01/04 06:44:49;;;;;;;9.85;7.03;;;6.50;48.50;;;;;;5047482;28;20031;-86
2022/01/04 06:47:15;;;;;;;10.02;7.13;;;6.50;48.60;;;;;;5048740;28;20070;-86
2022/01/04 06:49:41;;;;;;;12.80;7.57;;;6.50;48.60;;;;;;5036006;28;20035;-87
2022/01/04 06:52:08;;;;;;;10.40;7.60;;;6.50;48.60;;;;;;5047297;28;20051;-86
2022/01/04 06:54:35;;;;;;;10.23;7.18;;;6.50;48.60;;;;;;5087995;28;20040;-85
2022/01/04 06:57:01;;;;;;;12.63;7.45;;;6.50;48.70;;;;;;5084887;28;20040;-81
2022/01/04 06:59:27;;;;;;;10.80;7.13;;;6.50;48.70;;;;;;5080969;28;20074;-85
2022/01/04 07:01:53;;;;;;;10.50;7.57;;;6.50;48.70;;;;;;5063725;28;20032;-85
2022/01/04 07:04:19;;;;;;;10.73;7.93;;;6.50;48.80;;;;;;5048370;28;20024;-88
2022/01/04 07:06:48;;;;;;;10.75;8.05;;;6.50;48.70;;;;;;5033468;28;20372;-86
2022/01/04 07:09:14;;;;;;;11.65;7.72;;;6.50;48.90;;;;;;5049672;28;20043;-89
2022/01/04 07:11:40;;;;;;;10.95;7.65;;;6.40;48.80;;;;;;5064914;28;20041;-87
2022/01/04 07:14:06;;;;;;;13.73;8.35;;;6.50;48.80;;;;;;5063634;28;20495;-87
2022/01/04 07:16:32;;;;;;;11.57;8.38;;;6.50;48.90;;;;;;5030301;28;20024;-87
2022/01/04 07:18:58;;;;;;;9.85;7.78;;;6.40;48.70;;;;;;5036081;28;20178;-84
2022/01/04 07:21:24;;;;;;;9.00;7.13;;;6.40;48.70;;;;;;5051365;28;20141;-84
2022/01/04 07:23:50;;;;;;;8.05;7.05;;;6.40;48.70;;;;;;5064077;28;20032;-84
2022/01/04 07:26:17;;;;;;;10.98;7.88;;;6.50;49.00;;;;;;5063756;28;20403;-85
2022/01/04 07:28:47;;;;;;;11.13;7.60;;;6.50;49.10;;;;;;5052680;28;20040;-83
2022/01/04 07:31:15;;;;;;;10.48;7.85;;;6.50;49.10;;;;;;5052279;28;20044;-84
2022/01/04 07:33:41;;;;;;;11.85;8.38;;;6.40;48.90;;;;;;5063226;28;20030;-84
2022/01/04 07:36:07;;;;;;;12.93;9.07;;;6.40;48.80;;;;;;5062551;28;20044;-82
2022/01/04 07:38:35;;;;;;;13.52;8.73;;;6.50;48.90;;;;;;5063705;28;20443;-81
2022/01/04 07:41:01;;;;;;;12.88;8.65;;;6.40;48.90;;;;;;5062329;28;20054;-84
2022/01/04 07:43:27;;;;;;;13.77;9.00;;;6.40;49.00;;;;;;5050633;28;20123;-82
2022/01/04 07:45:53;;;;;;;13.50;8.57;;;6.40;49.00;;;;;;5063919;28;20111;-82
2022/01/04 07:48:20;;;;;;;14.93;8.88;;;6.40;49.10;;;;;;5061823;28;20041;-81
2022/01/04 07:50:46;;;;;;;15.98;9.73;;;6.40;49.30;;;;;;5063725;28;20043;-82
2022/01/04 07:53:12;;;;;;;14.73;9.35;;;6.40;50.40;;;;;;5063527;28;20035;-82
2022/01/04 07:55:38;;;;;;;17.05;10.13;;;6.40;50.00;;;;;;5064382;28;20434;-79
2022/01/04 07:58:04;;;;;;;16.75;9.68;;;6.40;50.40;;;;;;5061105;28;20035;-83
2022/01/04 08:00:30;;;;;;;17.30;10.05;;;6.40;50.90;;;;;;5064855;28;20036;-82
2022/01/04 08:02:56;;;;;;;18.20;9.88;;;6.40;52.80;;;;;;5058877;28;20542;-81
2022/01/04 08:05:23;;;;;;;20.02;9.85;;;6.40;54.20;;;;;;5063414;28;20029;-83
2022/01/04 08:07:50;;;;;;;19.50;10.55;;;6.40;55.10;;;;;;5063551;28;20534;-85
2022/01/04 08:10:16;;;;;;;26.80;11.40;;;6.40;55.80;;;;;;5060974;28;20514;-82
2022/01/04 08:12:43;;;;;;;15.35;9.45;;;6.50;56.20;;;;;;5060781;28;20032;-83
2022/01/04 08:15:10;;;;;;;18.63;10.27;;;6.50;56.50;;;;;;5059433;28;20036;-81
2022/01/04 08:17:36;;;;;;;19.95;9.65;;;6.60;56.60;;;;;;5061747;28;20024;-83
2022/01/04 08:20:04;;;;;;;17.23;9.77;;;6.60;56.50;;;;;;5061588;28;20524;-82
2022/01/04 08:22:34;;;;;;;16.85;9.57;;;6.70;56.80;;;;;;5061185;28;20060;-82
2022/01/04 08:25:02;;;;;;;22.48;10.02;;;6.70;56.80;;;;;;5062764;28;20028;-81
2022/01/04 08:27:29;;;;;;;17.90;9.43;;;6.80;56.60;;;;;;5063711;28;20032;-82
2022/01/04 08:29:55;;;;;;;14.73;8.45;;;6.80;57.10;;;;;;5062087;28;20088;-81
2022/01/04 08:32:21;;;;;;;17.35;9.20;;;6.90;57.00;;;;;;5054752;28;20040;-83
2022/01/04 08:34:48;;;;;;;14.85;9.30;;;6.90;57.30;;;;;;5063559;28;20032;-83
2022/01/04 08:37:15;;;;;;;17.30;9.55;;;6.90;57.10;;;;;;5064130;28;20098;-81
2022/01/04 08:39:41;;;;;;;13.20;8.25;;;6.90;57.00;;;;;;5062982;28;20043;-83
2022/01/04 08:42:07;;;;;;;18.67;9.55;;;7.00;56.90;;;;;;5061463;28;20091;-83
2022/01/04 08:44:33;;;;;;;15.07;8.20;;;7.00;57.00;;;;;;5049588;28;20028;-83
2022/01/04 08:47:02;;;;;;;15.30;8.88;;;7.00;56.90;;;;;;5062407;28;20396;-84
2022/01/04 08:49:30;;;;;;;17.30;9.02;;;7.00;56.90;;;;;;5065351;28;20524;-82
2022/01/04 08:51:55;;;;;;;14.80;8.18;;;7.10;57.20;;;;;;5063306;28;20033;-80
2022/01/04 08:54:21;;;;;;;13.48;8.40;;;7.10;57.30;;;;;;5048088;28;20238;-79
2022/01/04 08:56:47;;;;;;;16.55;9.32;;;7.10;57.60;;;;;;5062389;28;20028;-83
2022/01/04 08:59:13;;;;;;;13.48;9.20;;;7.10;57.60;;;;;;5069368;28;20095;-84
2022/01/04 09:01:41;;;;;;;17.08;9.27;;;7.10;57.30;;;;;;5066856;28;20134;-83
2022/01/04 09:04:07;;;;;;;13.60;8.68;;;7.20;57.20;;;;;;5066455;28;20045;-83
2022/01/04 09:06:34;;;;;;;14.15;8.73;;;7.20;57.00;;;;;;5069783;28;20051;-80
2022/01/04 09:09:00;;;;;;;15.20;9.13;;;7.20;56.90;;;;;;5068726;28;20036;-82
2022/01/04 09:11:26;;;;;;;13.45;8.18;;;7.20;56.80;;;;;;5067463;28;20045;-89
2022/01/04 09:14:18;;;;;;;15.32;8.65;;;7.20;56.70;;;;;;5040277;28;20046;-93
2022/01/04 09:19:27;;;;;;;11.18;7.07;;;7.30;60.00;;;;;;5062503;28;20040;-87
2022/01/04 09:21:54;;;;;;;13.35;7.82;;;7.30;60.00;;;;;;5067720;28;20506;-87
2022/01/04 09:24:20;;;;;;;14.30;8.40;;;7.30;59.70;;;;;;5051712;28;20038;-87
2022/01/04 09:26:50;;;;;;;14.65;7.85;;;7.40;59.40;;;;;;5052923;28;20563;-86
2022/01/04 09:29:18;;;;;;;12.43;7.22;;;7.40;59.10;;;;;;5064133;28;20037;-87
2022/01/04 09:31:47;;;;;;;13.90;7.43;;;7.40;58.90;;;;;;5065140;28;20044;-85
2022/01/04 09:34:13;;;;;;;11.38;7.35;;;7.50;58.70;;;;;;5063826;28;20078;-86
2022/01/04 09:36:39;;;;;;;11.02;7.38;;;7.50;58.60;;;;;;5064584;28;20064;-86
2022/01/04 09:39:13;;;;;;;12.05;7.90;;;7.50;58.50;;;;;;5065239;28;20032;-89
2022/01/04 09:41:40;;;;;;;11.68;7.38;;;7.50;58.30;;;;;;5051957;28;20226;-90
2022/01/04 09:44:06;;;;;;;14.45;8.07;;;7.50;58.10;;;;;;5049023;28;20123;-89
2022/01/04 09:46:33;;;;;;;12.02;7.90;;;7.50;58.10;;;;;;5040427;28;20119;-92
2022/01/04 09:48:59;;;;;;;14.35;8.48;;;7.50;58.00;;;;;;5062874;28;20036;-87
2022/01/04 09:51:27;;;;;;;10.85;7.45;;;7.50;58.00;;;;;;5064766;28;20048;-83
2022/01/04 09:53:53;;;;;;;12.55;8.38;;;7.60;58.10;;;;;;5045426;28;20021;-85
2022/01/04 09:56:19;;;;;;;15.05;8.40;;;7.60;58.30;;;;;;5049514;28;20111;-92
2022/01/04 09:58:45;;;;;;;13.57;8.90;;;7.60;58.40;;;;;;5031960;28;20036;-88
2022/01/04 10:01:26;;;;;;;13.52;9.27;;;7.60;58.50;;;;;;5064866;28;20032;-89
2022/01/04 10:03:52;;;;;;;16.02;9.15;;;7.60;58.50;;;;;;5047785;28;20028;-88
2022/01/04 10:06:19;;;;;;;14.35;8.75;;;7.60;58.60;;;;;;5045547;28;20029;-89
2022/01/04 10:09:00;;;;;;;14.13;8.88;;;7.70;58.80;;;;;;5078695;28;20033;-91
2022/01/04 10:11:44;;;;;;;16.20;9.40;;;7.70;58.80;;;;;;5082983;28;20036;-88
2022/01/04 10:14:41;;;;;;;16.27;9.45;;;7.70;58.90;;;;;;5062339;28;20096;-88
2022/01/04 10:17:32;;;;;;;14.57;8.63;;;7.70;58.90;;;;;;5053233;28;20040;-83
2022/01/04 10:20:00;;;;;;;18.23;8.57;;;7.70;63.30;;;;;;5064470;28;20045;-88
2022/01/04 10:22:30;;;;;;;15.15;8.13;;;7.80;70.00;;;;;;5042809;28;20039;-91
2022/01/04 10:25:02;;;;;;;13.18;7.18;;;8.00;68.80;;;;;;5040067;28;20036;-92
2022/01/04 10:27:40;;;;;;;13.93;8.35;;;8.00;66.40;;;;;;5066032;28;20040;-92
2022/01/04 10:30:16;;;;;;;13.65;8.25;;;8.00;64.70;;;;;;5050265;28;20183;-95
2022/01/04 10:32:49;;;;;;;;;;;8.00;63.20;;;;;;5066672;28;20040;-91
2022/01/04 10:35:33;;;;;;;15.80;9.20;;;8.00;62.30;;;;;;5048805;28;19957;-96
2022/01/04 10:38:21;;;;;;;17.73;9.82;;;8.00;61.50;;;;;;5049316;28;20124;-89
2022/01/04 10:40:47;;;;;;;14.73;8.95;;;8.00;61.20;;;;;;5058178;28;20522;-92
2022/01/04 10:43:17;;;;;;;12.27;8.88;;;8.00;61.10;;;;;;5047810;28;20025;-90
2022/01/04 10:45:44;;;;;;;16.13;9.27;;;8.00;60.80;;;;;;5065011;28;20039;-86
2022/01/04 10:48:28;;;;;;;16.08;9.18;;;8.00;60.70;;;;;;5066091;28;20062;-92
2022/01/04 10:50:57;;;;;;;15.50;10.25;;;8.10;60.80;;;;;;5050029;28;20110;-95
2022/01/04 10:53:26;;;;;;;13.95;8.80;;;8.10;60.80;;;;;;5049329;28;20024;-94
2022/01/04 10:56:15;;;;;;;15.95;9.30;;;8.10;60.80;;;;;;5046340;28;20406;-92
2022/01/04 10:58:45;;;;;;;15.77;9.52;;;8.10;60.80;;;;;;5052487;28;20055;-90
2022/01/04 11:01:14;;;;;;;16.75;9.80;;;8.10;60.90;;;;;;5051371;28;20047;-93
2022/01/04 11:03:45;;;;;;;15.60;9.98;;;8.10;60.80;;;;;;5050339;28;20063;-89
2022/01/04 11:06:12;;;;;;;14.15;8.88;;;8.10;60.80;;;;;;5048515;28;20032;-91
2022/01/04 11:08:39;;;;;;;14.23;9.02;;;8.10;60.60;;;;;;5051861;28;20043;-90
2022/01/04 11:11:05;;;;;;;16.10;9.93;;;8.10;60.60;;;;;;5077886;28;20041;-91
2022/01/04 11:13:31;;;;;;;17.67;9.80;;;8.10;60.50;;;;;;5063662;28;20062;-88
2022/01/04 11:16:00;;;;;;;14.63;9.63;;;8.10;60.50;;;;;;5082855;28;20124;-91
2022/01/04 11:18:27;;;;;;;14.88;9.13;;;8.10;60.50;;;;;;5081194;28;20046;-89
2022/01/04 11:20:54;;;;;;;15.15;9.90;;;8.10;60.60;;;;;;5051063;28;20024;-89
2022/01/04 11:23:31;;;;;;;18.85;10.13;;;8.10;60.60;;;;;;5065899;28;20028;-89
2022/01/04 11:26:00;;;;;;;13.18;8.98;;;8.10;60.50;;;;;;5066736;28;20368;-87
2022/01/04 11:28:27;;;;;;;15.82;10.25;;;8.10;60.40;;;;;;5048983;28;20028;-85
2022/01/04 11:31:23;;;;;;;17.95;9.98;;;8.10;60.60;;;;;;5049530;28;20045;-85
2022/01/04 11:33:57;;;;;;;17.10;10.40;;;8.10;61.00;;;;;;5061370;28;20039;-81
2022/01/04 11:36:25;;;;;;;18.20;10.63;;;8.10;60.80;;;;;;5048420;28;20082;-85
2022/01/04 11:38:51;;;;;;;16.35;10.05;;;8.10;60.40;;;;;;5066102;28;20029;-89
2022/01/04 11:41:33;;;;;;;15.38;10.00;;;8.20;59.90;;;;;;5058770;28;20033;-89
2022/01/04 11:44:17;;;;;;;17.98;10.10;;;8.10;59.30;;;;;;5078631;28;20078;-90
2022/01/04 11:46:43;;;;;;;16.92;10.38;;;8.10;59.00;;;;;;5067476;28;20043;-91
2022/01/04 11:49:12;;;;;;;17.85;10.52;;;8.10;58.70;;;;;;5043932;28;20033;-89
2022/01/04 11:51:42;;;;;;;17.25;10.27;;;8.10;58.50;;;;;;5065757;28;20051;-90
2022/01/04 11:54:35;;;;;;;15.75;10.05;;;8.10;58.30;;;;;;5045668;28;20035;-85
2022/01/04 11:57:04;;;;;;;22.80;10.98;;;8.10;58.30;;;;;;5070105;28;20036;-86
2022/01/04 11:59:36;;;;;;;17.00;9.38;;;8.10;59.10;;;;;;5067037;28;20032;-89
2022/01/04 12:02:28;;;;;;;13.70;8.57;;;8.10;62.50;;;;;;5046123;28;20063;-88
2022/01/04 12:05:04;;;;;;;17.40;9.02;;;8.10;62.80;;;;;;5063135;28;20062;-88
2022/01/04 12:07:39;;;;;;;20.90;10.85;;;8.20;62.50;;;;;;5051056;28;20123;-88
2022/01/04 12:10:20;;;;;;;18.58;11.48;;;8.20;61.60;;;;;;5063495;28;20044;-90
2022/01/04 12:12:57;;;;;;;17.98;11.38;;;8.20;60.70;;;;;;5051271;28;20033;-86
2022/01/04 12:15:33;;;;;;;17.63;11.23;;;8.10;60.20;;;;;;5082575;28;20043;-87
2022/01/04 12:18:03;;;;;;;24.88;12.00;;;8.10;59.90;;;;;;5074515;28;20009;-87
2022/01/04 12:20:44;;;;;;;23.30;12.85;;;8.10;59.60;;;;;;5086726;28;20039;-87
2022/01/04 12:26:06;;;;;;;23.13;12.70;;;8.10;59.30;;;;;;5047483;28;20082;-89
2022/01/04 12:28:38;;;;;;;21.40;12.20;;;8.10;59.30;;;;;;5055189;28;20032;-88
2022/01/04 12:31:17;;;;;;;23.35;12.45;;;8.10;59.40;;;;;;5061864;28;20037;-87
2022/01/04 12:33:45;;;;;;;22.67;12.10;;;8.10;59.40;;;;;;5052369;28;20400;-88
2022/01/04 12:36:31;;;;;;;24.63;12.70;;;8.10;59.50;;;;;;5062387;28;20071;-87
2022/01/04 12:39:01;;;;;;;23.50;12.48;;;8.10;59.40;;;;;;5052527;28;20115;-88
2022/01/04 12:41:27;;;;;;;21.23;12.30;;;8.10;59.50;;;;;;5054684;28;20353;-86
2022/01/04 12:43:53;;;;;;;24.75;13.30;;;8.10;59.70;;;;;;5050946;28;20119;-86
2022/01/04 12:46:27;;;;;;;24.27;13.43;;;8.00;59.60;;;;;;5035315;28;20495;-85
2022/01/04 12:48:56;;;;;;;27.80;13.52;;;8.00;59.70;;;;;;5031718;28;20028;-90
2022/01/04 12:51:32;;;;;;;24.70;12.18;;;8.00;60.60;;;;;;5067808;28;20502;-89
2022/01/04 12:54:08;;;;;;;22.48;12.93;;;8.00;61.70;;;;;;5048430;28;20020;-92
2022/01/04 12:59:07;;;;;;;26.20;12.40;;;8.00;60.90;;;;;;5090397;27;20439;-87
2022/01/04 13:01:33;;;;;;;25.80;11.57;;;8.10;69.00;;;;;;5077937;28;20110;-88
2022/01/04 13:04:00;;;;;;;26.10;11.68;;;8.20;74.00;;;;;;5081532;28;20024;-88